createdAt,value
2022-09-12T00:01:34.004Z,16.73
2022-09-12T00:04:06.200Z,18.00
2022-09-12T00:06:39.711Z,16.50
2022-09-12T00:09:14.529Z,18.15
2022-09-12T00:11:48.877Z,19.35
2022-09-12T00:14:22.343Z,18.92
2022-09-12T00:16:54.417Z,17.63
2022-09-12T00:19:26.700Z,17.63
2022-09-12T00:21:59.190Z,17.02
2022-09-12T00:24:32.346Z,18.73
2022-09-12T00:27:23.782Z,17.52
2022-09-12T00:29:56.710Z,18.80
2022-09-12T00:32:29.613Z,17.05
2022-09-12T00:35:01.423Z,19.60
2022-09-12T00:37:33.470Z,17.52
2022-09-12T00:40:05.941Z,18.70
2022-09-12T00:42:37.710Z,17.80
2022-09-12T00:45:22.920Z,18.67
2022-09-12T00:47:55.591Z,18.23
2022-09-12T00:50:46.674Z,17.80
2022-09-12T00:53:18.317Z,20.50
2022-09-12T00:58:46.672Z,21.98
2022-09-12T01:01:18.122Z,25.58
2022-09-12T01:03:52.112Z,18.73
2022-09-12T01:06:34.410Z,21.25
2022-09-12T01:09:07.383Z,18.67
2022-09-12T01:11:41.677Z,18.47
2022-09-12T01:14:12.869Z,20.77
2022-09-12T01:16:46.209Z,22.90
2022-09-12T01:19:20.553Z,22.70
2022-09-12T01:21:55.034Z,19.35
2022-09-12T01:25:10.872Z,20.02
2022-09-12T01:28:23.061Z,20.73
2022-09-12T01:31:08.332Z,22.45
2022-09-12T01:33:54.648Z,23.10
2022-09-12T01:36:35.046Z,22.02
2022-09-12T01:39:30.063Z,21.77
2022-09-12T01:42:12.406Z,23.58
2022-09-12T01:44:59.334Z,22.60
2022-09-12T01:48:03.376Z,21.95
2022-09-12T01:50:42.334Z,26.13
2022-09-12T01:53:37.332Z,24.35
2022-09-12T01:56:37.895Z,20.98
2022-09-12T02:02:18.423Z,19.50
2022-09-12T02:04:57.290Z,18.38
2022-09-12T02:07:59.743Z,20.90
2022-09-12T02:10:38.876Z,18.75
2022-09-12T02:13:19.636Z,19.83
2022-09-12T02:16:17.082Z,22.90
2022-09-12T02:19:01.944Z,22.08
2022-09-12T02:21:34.781Z,26.60
2022-09-12T02:24:09.643Z,21.17
2022-09-12T02:27:18.933Z,18.00
2022-09-12T02:29:50.759Z,19.50
2022-09-12T02:32:33.695Z,18.48
2022-09-12T02:36:03.953Z,19.65
2022-09-12T02:38:43.741Z,18.77
2022-09-12T02:41:19.330Z,20.00
2022-09-12T02:43:53.227Z,21.05
2022-09-12T02:46:31.837Z,20.05
2022-09-12T02:49:03.335Z,19.67
2022-09-12T02:51:34.846Z,21.08
2022-09-12T02:54:08.708Z,21.30
2022-09-12T02:56:44.858Z,21.75
2022-09-12T02:59:20.773Z,17.50
2022-09-12T03:02:00.839Z,18.35
2022-09-12T03:04:45.381Z,20.73
2022-09-12T03:07:45.512Z,21.45
2022-09-12T03:10:49.393Z,18.73
2022-09-12T03:13:50.079Z,19.75
2022-09-12T03:16:39.246Z,19.65
2022-09-12T03:19:54.674Z,20.10
2022-09-12T03:22:34.798Z,18.38
2022-09-12T03:25:27.401Z,18.75
2022-09-12T03:28:11.676Z,17.33
2022-09-12T03:33:23.854Z,20.40
2022-09-12T03:35:55.586Z,19.88
2022-09-12T03:38:26.630Z,18.42
2022-09-12T03:41:06.443Z,19.85
2022-09-12T03:43:40.648Z,19.13
2022-09-12T03:46:12.199Z,20.27
2022-09-12T03:48:44.072Z,17.65
2022-09-12T03:51:15.539Z,18.33
2022-09-12T03:54:07.253Z,19.25
2022-09-12T03:56:38.858Z,18.80
2022-09-12T03:59:11.928Z,17.77
2022-09-12T04:01:43.790Z,19.98
2022-09-12T04:04:14.904Z,17.65
2022-09-12T04:07:06.058Z,20.60
2022-09-12T04:09:37.817Z,18.40
2022-09-12T04:14:53.575Z,18.00
2022-09-12T04:17:25.229Z,17.63
2022-09-12T04:22:50.181Z,18.80
2022-09-12T04:25:26.217Z,17.35
2022-09-12T04:27:57.822Z,17.73
2022-09-12T04:30:29.174Z,18.17
2022-09-12T04:33:02.979Z,16.75
2022-09-12T04:35:38.172Z,17.42
2022-09-12T04:38:11.855Z,16.88
2022-09-12T04:40:44.642Z,17.35
2022-09-12T04:43:15.938Z,18.37
2022-09-12T04:45:47.442Z,17.65
2022-09-12T04:49:02.775Z,20.73
2022-09-12T04:51:36.626Z,17.60
2022-09-12T04:54:17.319Z,15.23
2022-09-12T04:56:51.252Z,17.92
2022-09-12T04:59:25.562Z,18.77
2022-09-12T05:01:57.369Z,17.00
2022-09-12T05:04:29.394Z,18.23
2022-09-12T05:07:02.729Z,17.85
2022-09-12T05:09:34.464Z,19.38
2022-09-12T05:12:07.236Z,18.63
2022-09-12T05:14:38.682Z,19.07
2022-09-12T05:17:09.871Z,18.33
2022-09-12T05:19:41.200Z,21.08
2022-09-12T05:22:12.296Z,19.00
2022-09-12T05:24:49.847Z,19.27
2022-09-12T05:27:21.792Z,17.65
2022-09-12T05:29:54.882Z,19.88
2022-09-12T05:32:48.945Z,20.83
2022-09-12T05:38:30.832Z,17.10
2022-09-12T05:41:17.540Z,16.30
2022-09-12T05:43:58.211Z,16.05
2022-09-12T05:46:32.380Z,17.17
2022-09-12T05:49:13.223Z,17.35
2022-09-12T05:54:52.838Z,16.60
2022-09-12T05:57:23.972Z,16.38
2022-09-12T05:59:57.304Z,18.77
2022-09-12T06:02:29.058Z,19.30
2022-09-12T06:05:00.471Z,19.27
2022-09-12T06:07:32.680Z,15.85
2022-09-12T06:10:27.000Z,19.05
2022-09-12T06:13:20.678Z,20.63
2022-09-12T06:18:38.631Z,17.90
2022-09-12T06:21:12.263Z,18.43
2022-09-12T06:26:15.073Z,18.08
2022-09-12T06:28:48.043Z,17.55
2022-09-12T06:31:28.460Z,21.23
2022-09-12T06:34:09.801Z,17.08
2022-09-12T06:36:51.573Z,20.27
2022-09-12T06:39:24.851Z,20.40
2022-09-12T06:42:17.170Z,19.10
2022-09-12T06:45:02.996Z,17.35
2022-09-12T06:47:36.729Z,20.25
2022-09-12T06:50:08.943Z,19.05
2022-09-12T06:52:40.461Z,16.88
2022-09-12T06:55:14.253Z,18.52
2022-09-12T06:57:52.884Z,20.48
2022-09-12T07:00:25.905Z,19.67
2022-09-12T07:03:00.921Z,21.23
2022-09-12T07:05:35.315Z,17.17
2022-09-12T07:08:10.169Z,17.48
2022-09-12T07:13:28.237Z,18.45
2022-09-12T07:16:20.403Z,17.23
2022-09-12T07:18:57.637Z,19.10
2022-09-12T07:21:30.471Z,17.13
2022-09-12T07:24:01.891Z,21.63
2022-09-12T07:26:35.777Z,18.60
2022-09-12T07:29:34.803Z,18.13
2022-09-12T07:32:01.544Z,18.05
2022-09-12T07:34:33.158Z,17.92
2022-09-12T07:37:16.814Z,18.52
2022-09-12T07:39:48.450Z,19.10
2022-09-12T07:42:20.022Z,17.95
2022-09-12T07:44:52.236Z,16.10
2022-09-12T07:47:23.780Z,19.13
2022-09-12T07:49:55.334Z,18.27
2022-09-12T07:52:26.779Z,17.67
2022-09-12T07:55:01.278Z,17.65
2022-09-12T07:57:53.270Z,18.50
2022-09-12T08:00:25.087Z,17.38
2022-09-12T08:02:57.927Z,16.85
2022-09-12T08:05:32.419Z,19.65
2022-09-12T08:08:30.679Z,18.88
2022-09-12T08:11:24.001Z,17.45
2022-09-12T08:14:22.179Z,16.08
2022-09-12T08:17:16.526Z,17.42
2022-09-12T08:23:01.158Z,17.40
2022-09-12T08:26:23.972Z,17.42
2022-09-12T08:28:56.410Z,17.08
2022-09-12T08:31:29.851Z,16.48
2022-09-12T08:34:07.840Z,18.27
2022-09-12T08:36:41.339Z,18.40
2022-09-12T08:39:26.066Z,17.13
2022-09-12T08:45:16.330Z,16.42
2022-09-12T08:47:49.473Z,17.40
2022-09-12T08:51:19.861Z,17.05
2022-09-12T08:54:05.018Z,17.80
2022-09-12T08:56:59.320Z,15.93
2022-09-12T08:59:52.101Z,18.98
2022-09-12T09:02:49.394Z,15.85
2022-09-12T09:05:45.728Z,16.75
2022-09-12T09:08:52.495Z,15.98
2022-09-12T09:11:56.163Z,16.38
2022-09-12T09:17:52.574Z,17.17
2022-09-12T09:20:46.277Z,16.45
2022-09-12T09:23:29.093Z,15.65
2022-09-12T09:26:03.224Z,16.33
2022-09-12T09:28:49.759Z,16.17
2022-09-12T09:31:24.183Z,16.55
2022-09-12T09:34:00.091Z,14.68
2022-09-12T09:36:45.386Z,15.07
2022-09-12T09:39:56.099Z,15.25
2022-09-12T09:43:01.370Z,16.08
2022-09-12T09:45:33.082Z,16.13
2022-09-12T09:48:26.832Z,16.52
2022-09-12T09:51:05.105Z,19.10
2022-09-12T09:53:56.343Z,14.15
2022-09-12T09:56:34.314Z,17.88
2022-09-12T09:59:33.607Z,15.77
2022-09-12T10:02:15.493Z,16.02
2022-09-12T10:05:12.173Z,15.40
2022-09-12T10:07:53.057Z,15.65
2022-09-12T10:13:45.276Z,18.38
2022-09-12T10:16:35.481Z,17.80
2022-09-12T10:19:09.980Z,15.98
2022-09-12T10:21:55.447Z,17.63
2022-09-12T10:24:50.775Z,18.65
2022-09-12T10:27:44.790Z,18.50
2022-09-12T10:30:29.510Z,17.33
2022-09-12T10:33:40.763Z,18.88
2022-09-12T10:36:15.785Z,17.42
2022-09-12T10:42:42.691Z,17.92
2022-09-12T10:45:28.213Z,16.98
2022-09-12T10:48:26.815Z,15.93
2022-09-12T10:51:04.071Z,18.30
2022-09-12T10:53:43.218Z,18.35
2022-09-12T10:56:21.382Z,18.15
2022-09-12T10:59:19.902Z,18.35
2022-09-12T11:02:06.889Z,16.55
2022-09-12T11:04:53.783Z,17.13
2022-09-12T11:07:38.508Z,18.23
2022-09-12T11:10:53.301Z,17.83
2022-09-12T11:13:47.173Z,17.05
2022-09-12T11:16:35.766Z,17.10
2022-09-12T11:19:37.968Z,18.65
2022-09-12T11:22:35.475Z,16.42
2022-09-12T11:25:13.446Z,16.40
2022-09-12T11:28:05.323Z,16.83
2022-09-12T11:31:16.238Z,18.10
2022-09-12T11:33:56.825Z,16.75
2022-09-12T11:36:43.030Z,18.77
2022-09-12T11:39:55.206Z,16.20
2022-09-12T11:42:50.090Z,17.23
2022-09-12T11:45:31.406Z,14.70
2022-09-12T11:51:08.080Z,15.88
2022-09-12T11:54:21.406Z,16.45
2022-09-12T11:57:42.621Z,18.23
2022-09-12T12:00:28.080Z,18.25
2022-09-12T12:03:20.633Z,18.95
2022-09-12T12:08:57.670Z,18.05
2022-09-12T12:11:59.812Z,17.52
2022-09-12T12:14:37.118Z,19.65
2022-09-12T12:17:32.861Z,18.48
2022-09-12T12:20:08.876Z,18.45
2022-09-12T12:22:53.483Z,16.75
2022-09-12T12:25:43.998Z,19.55
2022-09-12T12:28:53.384Z,20.05
2022-09-12T12:31:31.400Z,18.40
2022-09-12T12:34:43.787Z,18.08
2022-09-12T12:37:35.008Z,17.73
2022-09-12T12:40:31.620Z,19.13
2022-09-12T12:43:41.136Z,19.25
2022-09-12T12:46:52.044Z,19.33
2022-09-12T12:50:15.418Z,17.42
2022-09-12T12:53:29.499Z,19.80
2022-09-12T12:56:05.012Z,17.52
2022-09-12T12:58:44.530Z,18.30
2022-09-12T13:01:19.571Z,21.90
2022-09-12T13:04:17.942Z,20.65
2022-09-12T13:07:25.604Z,21.42
2022-09-12T13:10:03.831Z,19.58
2022-09-12T13:12:46.477Z,21.60
2022-09-12T13:15:45.729Z,21.70
2022-09-12T13:18:46.581Z,22.60
2022-09-12T13:21:25.343Z,23.92
2022-09-12T13:24:37.383Z,23.42
2022-09-12T13:27:31.345Z,22.95
2022-09-12T13:30:16.942Z,26.33
2022-09-12T13:33:14.088Z,24.48
2022-09-12T13:36:42.471Z,24.88
2022-09-12T13:39:33.229Z,25.67
2022-09-12T13:42:46.806Z,31.13
2022-09-12T13:45:48.792Z,25.25
2022-09-12T13:51:35.559Z,29.73
2022-09-12T13:54:10.795Z,24.95
2022-09-12T13:56:54.115Z,25.70
2022-09-12T13:59:32.506Z,23.38
2022-09-12T14:02:31.049Z,21.58
2022-09-12T14:05:14.979Z,21.98
2022-09-12T14:08:02.012Z,23.20
2022-09-12T14:10:46.154Z,31.25
2022-09-12T14:13:26.729Z,24.50
2022-09-12T14:16:01.768Z,25.65
2022-09-12T14:18:43.122Z,23.83
2022-09-12T14:22:05.667Z,23.15
2022-09-12T14:24:39.576Z,22.75
2022-09-12T14:27:33.100Z,21.75
2022-09-12T14:33:26.373Z,22.30
2022-09-12T14:36:39.010Z,20.88
2022-09-12T14:39:23.954Z,22.38
2022-09-12T14:42:26.031Z,24.52
2022-09-12T14:45:38.523Z,23.35
2022-09-12T14:48:42.127Z,24.20
2022-09-12T14:51:37.004Z,26.23
2022-09-12T14:54:34.692Z,21.95
2022-09-12T14:58:14.143Z,20.67
2022-09-12T15:01:09.758Z,24.13
2022-09-12T15:04:10.559Z,24.40
2022-09-12T15:07:24.611Z,22.80
2022-09-12T15:10:34.614Z,23.20
2022-09-12T15:13:18.704Z,20.83
2022-09-12T15:15:57.529Z,23.17
2022-09-12T15:18:55.435Z,22.15
2022-09-12T15:21:50.197Z,22.52
2022-09-12T15:24:24.205Z,20.77
2022-09-12T15:26:58.905Z,21.88
2022-09-12T15:32:51.752Z,25.27
2022-09-12T15:35:44.410Z,23.40
2022-09-12T15:38:38.429Z,25.58
2022-09-12T15:41:41.347Z,24.27
2022-09-12T15:47:12.067Z,22.40
2022-09-12T15:49:45.834Z,21.08
2022-09-12T15:52:19.661Z,20.23
2022-09-12T15:55:26.831Z,21.63
2022-09-12T15:58:03.539Z,21.25
2022-09-12T16:00:39.056Z,20.40
2022-09-12T16:03:45.773Z,18.80
2022-09-12T16:06:24.440Z,21.85
2022-09-12T16:08:58.705Z,21.08
2022-09-12T16:11:31.070Z,19.75
2022-09-12T16:14:05.368Z,20.95
2022-09-12T16:17:01.569Z,21.00
2022-09-12T16:19:54.494Z,23.67
2022-09-12T16:22:27.444Z,20.95
2022-09-12T16:25:01.130Z,20.38
2022-09-12T16:27:34.708Z,20.33
2022-09-12T16:30:08.838Z,21.52
2022-09-12T16:32:41.646Z,20.40
2022-09-12T16:35:36.650Z,21.23
2022-09-12T16:38:10.785Z,19.13
2022-09-12T16:41:09.910Z,21.75
2022-09-12T16:43:43.045Z,19.45
2022-09-12T16:46:37.739Z,20.58
2022-09-12T16:49:10.463Z,19.65
2022-09-12T16:52:16.262Z,22.52
2022-09-12T16:54:56.206Z,21.20
2022-09-12T16:57:48.058Z,20.90
2022-09-12T17:00:39.790Z,22.65
2022-09-12T17:03:52.605Z,21.75
2022-09-12T17:06:29.431Z,21.83
2022-09-12T17:09:05.665Z,21.30
2022-09-12T17:11:40.638Z,20.05
2022-09-12T17:14:15.740Z,20.83
2022-09-12T17:16:51.910Z,22.23
2022-09-12T17:19:39.160Z,21.58
2022-09-12T17:22:16.530Z,22.08
2022-09-12T17:24:48.494Z,20.75
2022-09-12T17:27:52.069Z,22.63
2022-09-12T17:30:24.143Z,20.02
2022-09-12T17:33:22.985Z,22.13
2022-09-12T17:36:36.281Z,21.05
2022-09-12T17:39:09.717Z,20.08
2022-09-12T17:41:45.925Z,21.77
2022-09-12T17:44:19.508Z,21.02
2022-09-12T17:46:59.660Z,21.35
2022-09-12T17:52:07.488Z,20.98
2022-09-12T17:54:41.730Z,24.67
2022-09-12T17:57:14.375Z,21.58
2022-09-12T18:02:43.344Z,20.08
2022-09-12T18:05:16.797Z,22.23
2022-09-12T18:07:53.212Z,20.38
2022-09-12T18:10:25.759Z,19.38
2022-09-12T18:12:57.646Z,20.73
2022-09-12T18:15:29.839Z,19.70
2022-09-12T18:18:03.313Z,23.33
2022-09-12T18:20:42.951Z,18.63
2022-09-12T18:26:06.773Z,19.77
2022-09-12T18:29:03.968Z,21.05
2022-09-12T18:34:20.474Z,20.15
2022-09-12T18:36:56.424Z,20.23
2022-09-12T18:39:28.185Z,25.02
2022-09-12T18:42:20.340Z,22.65
2022-09-12T18:45:10.423Z,20.88
2022-09-12T18:47:41.830Z,19.98
2022-09-12T18:50:36.105Z,23.70
2022-09-12T18:56:02.744Z,20.10
2022-09-12T18:58:35.230Z,20.60
2022-09-12T19:01:21.832Z,18.70
2022-09-12T19:03:54.002Z,21.08
2022-09-12T19:06:29.994Z,24.30
2022-09-12T19:09:06.650Z,20.30
2022-09-12T19:11:41.109Z,21.80
2022-09-12T19:16:42.649Z,19.73
2022-09-12T19:19:16.938Z,18.58
2022-09-12T19:21:48.366Z,23.25
2022-09-12T19:24:19.594Z,19.40
2022-09-12T19:29:37.714Z,20.10
2022-09-12T19:32:09.886Z,21.65
2022-09-12T19:34:41.263Z,20.20
2022-09-12T19:37:33.140Z,20.27
2022-09-12T19:40:24.853Z,20.02
2022-09-12T19:42:55.964Z,17.50
2022-09-12T19:45:27.010Z,20.25
2022-09-12T19:47:59.394Z,18.88
2022-09-12T19:50:34.944Z,18.95
2022-09-12T19:53:06.331Z,20.55
2022-09-12T19:55:37.977Z,20.75
2022-09-12T19:58:09.213Z,21.38
2022-09-12T20:00:40.720Z,21.35
2022-09-12T20:05:56.687Z,21.25
2022-09-12T20:08:27.792Z,22.48
2022-09-12T20:13:49.100Z,20.80
2022-09-12T20:16:26.744Z,21.98
2022-09-12T20:19:11.605Z,20.75
2022-09-12T20:21:43.610Z,17.75
2022-09-12T20:24:17.478Z,20.83
2022-09-12T20:26:48.564Z,18.63
2022-09-12T20:29:19.869Z,20.85
2022-09-12T20:31:51.711Z,19.00
2022-09-12T20:34:23.265Z,20.83
2022-09-12T20:37:14.117Z,18.45
2022-09-12T20:39:50.198Z,20.50
2022-09-12T20:42:21.681Z,18.80
2022-09-12T20:44:54.041Z,21.33
2022-09-12T20:47:25.036Z,22.08
2022-09-12T20:49:56.579Z,19.85
2022-09-12T20:52:27.589Z,20.88
2022-09-12T20:54:58.851Z,20.88
2022-09-12T20:57:30.067Z,20.80
2022-09-12T21:00:01.201Z,19.70
2022-09-12T21:02:32.488Z,19.90
2022-09-12T21:05:04.155Z,19.23
2022-09-12T21:07:36.579Z,21.83
2022-09-12T21:10:08.024Z,19.85
2022-09-12T21:12:39.294Z,22.75
2022-09-12T21:15:13.595Z,19.85
2022-09-12T21:17:44.847Z,19.73
2022-09-12T21:20:16.002Z,18.08
2022-09-12T21:22:47.102Z,18.23
2022-09-12T21:25:18.306Z,20.80
2022-09-12T21:27:49.466Z,22.25
2022-09-12T21:30:21.708Z,18.98
2022-09-12T21:32:55.066Z,20.05
2022-09-12T21:35:26.004Z,20.60
2022-09-12T21:40:40.621Z,20.40
2022-09-12T21:46:00.491Z,18.00
2022-09-12T21:48:35.338Z,18.98
2022-09-12T21:51:09.858Z,18.65
2022-09-12T21:53:41.088Z,20.65
2022-09-12T21:56:12.483Z,19.73
2022-09-12T21:58:43.607Z,19.38
2022-09-12T22:01:15.046Z,20.30
2022-09-12T22:03:46.102Z,18.40
2022-09-12T22:06:20.621Z,20.13
2022-09-12T22:08:53.615Z,21.70
2022-09-12T22:11:25.230Z,20.50
2022-09-12T22:13:56.447Z,20.65
2022-09-12T22:19:11.328Z,20.58
2022-09-12T22:22:02.215Z,21.13
2022-09-12T22:24:33.455Z,20.80
2022-09-12T22:27:07.550Z,20.50
2022-09-12T22:29:39.986Z,20.98
2022-09-12T22:32:11.918Z,18.48
2022-09-12T22:34:43.226Z,20.83
2022-09-12T22:37:15.158Z,19.20
2022-09-12T22:39:46.415Z,17.05
2022-09-12T22:45:09.475Z,20.30
2022-09-12T22:47:43.492Z,20.10
2022-09-12T22:50:15.378Z,19.60
2022-09-12T22:52:46.707Z,19.52
2022-09-12T22:55:17.905Z,18.92
2022-09-12T22:57:49.059Z,19.88
2022-09-12T23:00:21.286Z,19.98
2022-09-12T23:02:52.436Z,19.85
2022-09-12T23:05:24.426Z,19.73
2022-09-12T23:07:57.611Z,18.45
2022-09-12T23:13:14.247Z,18.50
2022-09-12T23:15:45.454Z,22.67
2022-09-12T23:18:16.900Z,17.67
2022-09-12T23:20:57.654Z,21.35
2022-09-12T23:23:29.391Z,19.60
2022-09-12T23:26:21.524Z,21.27
2022-09-12T23:29:02.935Z,20.88
2022-09-12T23:31:57.050Z,21.17
2022-09-12T23:34:53.069Z,19.73
2022-09-12T23:37:26.527Z,19.00
2022-09-12T23:39:58.113Z,19.85
2022-09-12T23:45:17.215Z,19.00
2022-09-12T23:47:49.327Z,19.48
2022-09-12T23:50:20.934Z,19.67
2022-09-12T23:52:54.108Z,22.52
2022-09-12T23:55:26.024Z,19.17
2022-09-12T23:57:57.845Z,17.60
